Time;durP1;ratioP1;P1;durP2;ratioP2;P2;SDS_P1;SDS_P2;PMS_P1;PMS_P2;Temp;Humidity;BMP_temperature;BMP_pressure;BME280_temperature;BME280_humidity;BME280_pressure;Samples;Min_cycle;Max_cycle;Signal;HPM_P1;HPM_P2
2022/09/17 00:00:38;;;;;;;11.40;2.10;;;12.10;91.20;;;;;;5057124;28;20492;-83
2022/09/17 00:03:04;;;;;;;12.93;1.35;;;12.20;91.00;;;;;;5073970;28;20465;-83
2022/09/17 00:05:30;;;;;;;11.30;1.00;;;12.20;91.00;;;;;;5073662;28;20467;-83
2022/09/17 00:07:56;;;;;;;9.65;1.73;;;12.20;90.90;;;;;;5073935;28;20017;-83
2022/09/17 00:10:23;;;;;;;9.90;1.13;;;12.30;90.90;;;;;;5073713;28;20028;-83
2022/09/17 00:12:49;;;;;;;11.40;1.52;;;12.30;90.80;;;;;;5073746;28;20023;-83
2022/09/17 00:15:15;;;;;;;9.77;1.65;;;12.30;90.80;;;;;;5073704;28;20071;-83
2022/09/17 00:17:42;;;;;;;9.95;1.23;;;12.30;90.70;;;;;;5057084;28;20024;-83
2022/09/17 00:20:09;;;;;;;10.48;1.48;;;12.20;90.70;;;;;;5074880;28;20024;-83
2022/09/17 00:22:36;;;;;;;8.38;1.52;;;12.20;90.80;;;;;;5073511;28;20032;-82
2022/09/17 00:25:03;;;;;;;12.98;1.50;;;12.20;90.90;;;;;;5073418;28;20149;-83
2022/09/17 00:27:28;;;;;;;15.55;1.30;;;12.20;90.90;;;;;;5073295;28;20487;-82
2022/09/17 00:29:54;;;;;;;14.57;1.80;;;12.20;91.00;;;;;;5040123;28;20108;-83
2022/09/17 00:32:20;;;;;;;11.90;2.22;;;12.20;90.90;;;;;;5056764;28;20055;-82
2022/09/17 00:34:47;;;;;;;10.60;1.20;;;12.20;91.20;;;;;;5074578;28;20483;-83
2022/09/17 00:37:13;;;;;;;13.23;2.17;;;12.20;91.30;;;;;;5040471;28;20480;-83
2022/09/17 00:39:39;;;;;;;12.30;1.55;;;12.20;91.40;;;;;;5056735;28;20032;-84
2022/09/17 00:42:09;;;;;;;14.48;1.67;;;12.20;91.40;;;;;;5056594;28;20031;-84
2022/09/17 00:44:54;;;;;;;12.50;1.58;;;12.20;91.40;;;;;;5040888;28;20457;-84
2022/09/17 00:47:33;;;;;;;10.43;1.33;;;12.30;91.50;;;;;;5072896;28;20021;-83
2022/09/17 00:50:08;;;;;;;9.05;1.20;;;12.30;91.60;;;;;;5072762;28;20052;-83
2022/09/17 00:52:43;;;;;;;16.17;1.95;;;12.20;91.60;;;;;;5072987;28;20043;-83
2022/09/17 00:55:36;;;;;;;13.95;1.67;;;12.30;91.70;;;;;;5073312;28;20069;-82
2022/09/17 00:58:06;;;;;;;13.93;1.30;;;12.20;91.70;;;;;;5070460;28;20033;-82
2022/09/17 01:00:32;;;;;;;14.30;1.63;;;12.30;91.80;;;;;;5073906;28;20044;-82
2022/09/17 01:02:58;;;;;;;10.88;1.25;;;12.20;91.90;;;;;;5072624;28;20388;-82
2022/09/17 01:05:49;;;;;;;10.05;1.75;;;12.20;92.00;;;;;;5073887;28;20032;-82
2022/09/17 01:08:42;;;;;;;12.50;1.80;;;12.20;92.10;;;;;;5072683;28;20048;-81
2022/09/17 01:11:29;;;;;;;13.68;2.08;;;12.30;92.30;;;;;;5073704;28;20024;-81
2022/09/17 01:14:04;;;;;;;11.40;1.60;;;12.20;92.30;;;;;;5072475;28;20021;-81
2022/09/17 01:16:52;;;;;;;11.68;1.50;;;12.20;92.30;;;;;;5072485;28;20031;-81
2022/09/17 01:19:36;;;;;;;13.45;1.80;;;12.20;92.30;;;;;;5072409;28;20489;-81
2022/09/17 01:22:18;;;;;;;15.38;1.17;;;12.20;92.40;;;;;;5073808;28;20032;-81
2022/09/17 01:24:48;;;;;;;11.65;1.77;;;12.20;92.50;;;;;;5072440;28;20027;-81
2022/09/17 01:27:29;;;;;;;9.65;1.05;;;12.20;92.60;;;;;;5072247;28;20024;-80
2022/09/17 01:30:07;;;;;;;13.30;2.03;;;12.20;92.60;;;;;;5072389;28;20028;-80
2022/09/17 01:32:38;;;;;;;12.63;1.48;;;12.20;92.60;;;;;;5072195;28;20473;-81
2022/09/17 01:35:18;;;;;;;11.32;1.20;;;12.20;92.60;;;;;;5072139;28;20541;-81
2022/09/17 01:38:03;;;;;;;10.23;1.67;;;12.20;92.70;;;;;;5072262;28;20472;-81
2022/09/17 01:40:51;;;;;;;9.63;1.00;;;12.20;92.70;;;;;;5068103;28;20101;-82
2022/09/17 01:43:32;;;;;;;13.75;1.38;;;12.20;92.80;;;;;;5071919;28;20060;-82
2022/09/17 01:46:13;;;;;;;9.70;1.30;;;12.20;92.80;;;;;;5071888;28;20024;-81
2022/09/17 01:48:44;;;;;;;12.80;1.73;;;12.10;92.90;;;;;;5072036;28;20023;-82
2022/09/17 01:51:21;;;;;;;14.35;1.92;;;12.10;93.00;;;;;;5072244;28;20016;-81
2022/09/17 01:53:58;;;;;;;16.30;1.70;;;12.10;93.00;;;;;;5073215;28;20032;-81
2022/09/17 01:56:38;;;;;;;6.47;0.93;;;12.00;93.10;;;;;;5073133;28;20066;-81
2022/09/17 01:59:23;;;;;;;9.88;1.48;;;12.00;93.10;;;;;;5073230;28;20372;-82
2022/09/17 02:01:54;;;;;;;12.15;1.30;;;11.90;93.10;;;;;;5071919;28;20036;-81
2022/09/17 02:04:28;;;;;;;16.65;1.67;;;11.90;93.20;;;;;;5072720;28;20392;-82
2022/09/17 02:07:02;;;;;;;14.45;1.58;;;11.80;93.20;;;;;;5079205;28;20036;-81
2022/09/17 02:09:45;;;;;;;15.60;1.33;;;11.80;93.20;;;;;;5079632;28;20765;-82
2022/09/17 02:12:17;;;;;;;10.73;1.67;;;11.80;93.30;;;;;;5078335;28;20017;-82
2022/09/17 02:14:52;;;;;;;8.55;1.17;;;11.70;93.40;;;;;;5079595;28;20032;-82
2022/09/17 02:17:34;;;;;;;15.00;1.20;;;11.70;93.40;;;;;;5079645;28;20068;-82
2022/09/17 02:20:00;;;;;;;18.60;1.60;;;11.70;93.50;;;;;;5078355;28;20016;-81
2022/09/17 02:22:38;;;;;;;10.52;1.13;;;11.60;93.50;;;;;;5078243;28;20115;-82
2022/09/17 02:25:06;;;;;;;12.93;1.63;;;11.60;93.60;;;;;;5078291;28;20024;-82
2022/09/17 02:27:44;;;;;;;5.57;0.93;;;11.50;93.70;;;;;;5078172;28;20023;-82
2022/09/17 02:30:11;;;;;;;7.15;1.00;;;11.50;93.80;;;;;;5078301;28;20031;-82
2022/09/17 02:32:37;;;;;;;11.35;0.85;;;11.50;94.10;;;;;;5079536;28;20017;-82
2022/09/17 02:35:03;;;;;;;9.70;1.70;;;11.60;93.90;;;;;;5061689;28;20396;-82
2022/09/17 02:37:28;;;;;;;9.55;1.33;;;11.40;93.90;;;;;;5079464;28;20021;-82
2022/09/17 02:39:54;;;;;;;9.83;1.53;;;11.40;94.10;;;;;;5061499;28;20362;-82
2022/09/17 02:43:02;;;;;;;9.73;1.60;;;11.30;94.00;;;;;;5078326;28;20480;-82
2022/09/17 02:45:49;;;;;;;11.37;1.07;;;11.30;94.10;;;;;;5060467;28;20123;-82
2022/09/17 02:48:40;;;;;;;10.53;1.30;;;11.30;94.20;;;;;;5077936;28;20060;-83
2022/09/17 02:51:11;;;;;;;15.80;1.30;;;11.30;94.20;;;;;;5078155;28;20040;-82
2022/09/17 02:54:10;;;;;;;9.90;1.40;;;11.20;94.20;;;;;;5079595;28;20020;-82
2022/09/17 02:56:47;;;;;;;13.57;1.10;;;11.20;94.30;;;;;;5079222;28;20457;-83
2022/09/17 02:59:40;;;;;;;12.30;1.53;;;11.10;94.30;;;;;;5078121;28;20020;-82
2022/09/17 03:02:42;;;;;;;12.53;1.10;;;11.10;94.30;;;;;;5079168;28;20052;-82
2022/09/17 03:05:08;;;;;;;13.83;1.13;;;11.00;94.40;;;;;;5078893;28;20089;-82
2022/09/17 03:07:35;;;;;;;9.70;2.03;;;11.00;94.50;;;;;;5078168;28;20112;-82
2022/09/17 03:10:00;;;;;;;8.70;0.93;;;11.00;94.60;;;;;;5044852;28;20121;-81
2022/09/17 03:12:26;;;;;;;13.30;1.20;;;11.00;94.60;;;;;;5061228;28;20071;-82
2022/09/17 03:14:52;;;;;;;9.00;1.10;;;10.90;94.60;;;;;;5078187;28;20064;-82
2022/09/17 03:17:17;;;;;;;17.73;1.70;;;10.90;94.70;;;;;;5059006;28;20025;-82
2022/09/17 03:19:43;;;;;;;8.73;1.73;;;10.90;94.70;;;;;;5058396;28;20036;-82
2022/09/17 03:22:09;;;;;;;17.73;1.30;;;10.90;94.80;;;;;;5074868;28;20031;-82
2022/09/17 03:24:34;;;;;;;10.30;0.97;;;10.80;94.90;;;;;;5076622;28;20032;-83
2022/09/17 03:27:00;;;;;;;10.93;1.00;;;10.80;95.10;;;;;;5078760;28;20088;-82
2022/09/17 03:29:26;;;;;;;10.30;0.87;;;10.80;95.10;;;;;;5078393;28;20074;-82
2022/09/17 03:31:51;;;;;;;9.47;1.10;;;10.70;95.10;;;;;;5044587;28;20028;-82
2022/09/17 03:34:17;;;;;;;9.07;1.43;;;10.70;95.20;;;;;;5061188;28;20115;-82
2022/09/17 03:36:43;;;;;;;12.97;1.40;;;10.70;95.40;;;;;;5059751;28;20039;-81
2022/09/17 03:39:08;;;;;;;13.33;1.13;;;10.70;95.40;;;;;;5042017;28;20024;-82
2022/09/17 03:41:34;;;;;;;7.73;1.00;;;10.60;95.40;;;;;;5057940;28;20075;-82
2022/09/17 03:44:00;;;;;;;8.23;1.10;;;10.60;95.40;;;;;;5075636;28;20024;-82
2022/09/17 03:46:25;;;;;;;11.50;1.07;;;10.60;95.40;;;;;;5075603;28;20020;-82
2022/09/17 03:48:51;;;;;;;6.90;1.00;;;10.50;95.40;;;;;;5057639;28;20021;-81
2022/09/17 03:51:16;;;;;;;6.70;1.00;;;10.50;95.50;;;;;;5057449;28;20474;-82
2022/09/17 03:53:42;;;;;;;9.47;1.13;;;10.50;95.50;;;;;;5057510;28;20027;-82
2022/09/17 03:56:08;;;;;;;12.57;1.97;;;10.40;95.60;;;;;;5057544;28;20024;-82
2022/09/17 03:58:34;;;;;;;8.57;1.17;;;10.40;95.70;;;;;;5073934;28;20025;-81
2022/09/17 04:01:02;;;;;;;11.07;1.13;;;10.40;95.70;;;;;;5059888;28;20041;-83
2022/09/17 04:03:27;;;;;;;10.33;1.00;;;10.40;95.70;;;;;;5052652;28;20025;-83
2022/09/17 04:05:54;;;;;;;5.73;0.87;;;10.40;95.80;;;;;;5052004;28;20017;-82
2022/09/17 04:08:20;;;;;;;7.33;0.90;;;10.40;95.70;;;;;;5035925;28;20025;-83
2022/09/17 04:10:47;;;;;;;11.17;1.17;;;10.40;95.80;;;;;;5036718;28;20120;-82
2022/09/17 04:13:14;;;;;;;6.67;0.80;;;10.40;95.80;;;;;;5053432;28;20024;-82
2022/09/17 04:15:40;;;;;;;12.57;0.87;;;10.40;95.80;;;;;;5037112;28;20032;-83
2022/09/17 04:18:06;;;;;;;8.30;0.80;;;10.40;95.90;;;;;;5065521;28;20443;-82
2022/09/17 04:20:32;;;;;;;10.20;1.17;;;10.40;95.90;;;;;;5056845;28;20024;-82
2022/09/17 04:22:57;;;;;;;9.53;1.10;;;10.40;95.90;;;;;;5053918;28;20029;-83
2022/09/17 04:25:23;;;;;;;10.10;1.30;;;10.50;96.10;;;;;;5064918;28;20111;-82
2022/09/17 04:27:49;;;;;;;9.70;1.70;;;10.50;96.20;;;;;;5067899;28;20025;-82
2022/09/17 04:30:15;;;;;;;10.77;1.20;;;10.40;96.20;;;;;;5034920;28;20025;-82
2022/09/17 04:32:43;;;;;;;6.93;0.97;;;10.50;96.40;;;;;;5052378;28;20402;-82
2022/09/17 04:35:08;;;;;;;12.23;1.50;;;10.50;96.40;;;;;;5054423;28;20028;-82
2022/09/17 04:37:34;;;;;;;12.87;1.07;;;10.50;96.40;;;;;;5053350;28;20017;-82
2022/09/17 04:40:00;;;;;;;11.53;1.40;;;10.50;96.30;;;;;;5036915;28;20477;-82
2022/09/17 04:42:26;;;;;;;7.33;1.73;;;10.50;96.30;;;;;;5053846;28;20033;-82
2022/09/17 04:44:51;;;;;;;16.93;1.27;;;10.50;96.40;;;;;;5036464;28;20119;-82
2022/09/17 04:47:17;;;;;;;15.03;1.27;;;10.50;96.40;;;;;;5053080;28;20021;-83
2022/09/17 04:49:42;;;;;;;6.67;1.00;;;10.50;96.50;;;;;;5054297;28;20143;-82
2022/09/17 04:52:08;;;;;;;9.20;1.23;;;10.50;96.50;;;;;;5054277;28;20381;-82
2022/09/17 04:54:34;;;;;;;9.23;0.90;;;10.50;96.40;;;;;;5036415;28;20067;-82
2022/09/17 04:57:00;;;;;;;9.23;1.40;;;10.50;96.40;;;;;;5052902;28;20039;-82
2022/09/17 04:59:26;;;;;;;10.80;1.10;;;10.50;96.40;;;;;;5052751;28;20033;-82
2022/09/17 05:01:51;;;;;;;9.03;1.47;;;10.50;96.30;;;;;;5036132;28;20052;-82
2022/09/17 05:04:17;;;;;;;5.53;0.80;;;10.50;96.40;;;;;;5035971;28;20033;-82
2022/09/17 05:06:43;;;;;;;8.50;0.90;;;10.50;96.30;;;;;;5052595;28;20029;-82
2022/09/17 05:09:08;;;;;;;6.83;0.93;;;10.40;96.30;;;;;;5052726;28;20040;-82
2022/09/17 05:11:34;;;;;;;10.03;0.97;;;10.40;96.40;;;;;;5053080;28;20029;-82
2022/09/17 05:14:00;;;;;;;10.50;1.10;;;10.40;96.40;;;;;;5052955;28;20448;-83
2022/09/17 05:16:25;;;;;;;8.53;0.90;;;10.40;96.50;;;;;;5052736;28;20099;-78
2022/09/17 05:18:51;;;;;;;6.43;1.13;;;10.40;96.60;;;;;;5052520;28;20388;-78
2022/09/17 05:21:20;;;;;;;8.43;0.93;;;10.40;96.70;;;;;;5053684;28;20055;-78
2022/09/17 05:23:46;;;;;;;6.00;0.80;;;10.40;96.60;;;;;;5052517;28;20057;-77
2022/09/17 05:26:12;;;;;;;9.80;1.20;;;10.40;96.60;;;;;;5053564;28;20461;-78
2022/09/17 05:28:38;;;;;;;8.63;0.73;;;10.50;96.70;;;;;;5052401;28;20028;-77
2022/09/17 05:31:04;;;;;;;11.17;1.13;;;10.50;96.90;;;;;;5035854;28;20115;-78
2022/09/17 05:33:29;;;;;;;7.07;0.70;;;10.50;96.60;;;;;;5052144;28;20029;-78
2022/09/17 05:35:55;;;;;;;14.10;1.53;;;10.60;96.60;;;;;;5053405;28;20035;-78
2022/09/17 05:38:21;;;;;;;9.60;0.83;;;10.50;96.50;;;;;;5052375;28;20037;-77
2022/09/17 05:40:47;;;;;;;7.00;0.80;;;10.60;96.60;;;;;;5051837;28;20029;-77
2022/09/17 05:43:13;;;;;;;8.97;0.83;;;10.50;96.50;;;;;;5053160;28;20025;-77
2022/09/17 05:45:39;;;;;;;20.13;1.20;;;10.50;96.40;;;;;;5059754;28;20392;-78
2022/09/17 05:48:09;;;;;;;8.93;0.63;;;10.60;96.40;;;;;;5055411;28;20040;-79
2022/09/17 05:50:34;;;;;;;11.60;1.10;;;10.50;96.40;;;;;;5072040;28;20029;-77
2022/09/17 05:53:11;;;;;;;6.07;0.80;;;10.60;96.40;;;;;;5072047;28;20024;-77
2022/09/17 05:55:38;;;;;;;10.00;0.83;;;10.60;96.40;;;;;;5071832;28;20072;-77
2022/09/17 05:58:15;;;;;;;13.23;1.53;;;10.60;96.30;;;;;;5071955;28;20027;-78
2022/09/17 06:00:42;;;;;;;6.80;0.77;;;10.60;96.30;;;;;;5073000;28;20072;-77
2022/09/17 06:03:12;;;;;;;7.27;0.90;;;10.60;96.30;;;;;;5072055;28;20051;-78
2022/09/17 06:05:38;;;;;;;9.30;0.73;;;10.60;96.30;;;;;;5071847;28;20384;-79
2022/09/17 06:08:05;;;;;;;4.83;1.00;;;10.60;96.40;;;;;;5055162;28;20025;-78
2022/09/17 06:10:31;;;;;;;7.10;0.70;;;10.70;96.10;;;;;;5055210;28;20431;-81
2022/09/17 06:12:57;;;;;;;12.70;1.07;;;10.70;96.10;;;;;;5072076;28;20021;-81
2022/09/17 06:15:25;;;;;;;7.30;0.60;;;10.70;96.10;;;;;;5071776;28;20021;-83
2022/09/17 06:17:51;;;;;;;8.00;0.80;;;10.70;96.00;;;;;;5055120;28;20094;-81
2022/09/17 06:20:17;;;;;;;5.03;0.90;;;10.80;95.80;;;;;;5055185;28;20048;-82
2022/09/17 06:22:43;;;;;;;7.33;0.60;;;10.70;95.80;;;;;;5071831;28;20039;-81
2022/09/17 06:25:08;;;;;;;5.90;0.77;;;10.80;95.80;;;;;;5072874;28;20465;-81
2022/09/17 06:27:35;;;;;;;7.20;0.70;;;10.70;96.00;;;;;;5038264;28;20020;-82
2022/09/17 06:30:01;;;;;;;7.23;1.30;;;10.80;95.60;;;;;;5072906;28;20025;-82
2022/09/17 06:32:27;;;;;;;5.37;0.60;;;10.90;95.40;;;;;;5071474;28;20021;-81
2022/09/17 06:34:54;;;;;;;12.63;1.17;;;10.90;95.40;;;;;;5071774;28;20400;-81
2022/09/17 06:37:26;;;;;;;7.38;1.00;;;11.00;95.30;;;;;;5071557;28;20056;-80
2022/09/17 06:39:52;;;;;;;5.70;0.50;;;11.00;95.20;;;;;;5071559;28;20477;-80
2022/09/17 06:42:18;;;;;;;7.70;0.73;;;11.10;94.90;;;;;;5071535;28;20032;-81
2022/09/17 06:44:43;;;;;;;8.80;1.00;;;11.10;94.80;;;;;;5045128;28;20045;-80
2022/09/17 06:47:09;;;;;;;9.80;1.03;;;11.10;94.60;;;;;;5042655;28;20029;-82
2022/09/17 06:49:35;;;;;;;7.07;1.10;;;11.20;94.60;;;;;;5054045;28;20095;-81
2022/09/17 06:52:00;;;;;;;4.83;0.70;;;11.20;94.70;;;;;;5051825;28;20504;-83
2022/09/17 06:54:26;;;;;;;7.32;0.98;;;11.20;94.70;;;;;;5038588;28;20033;-81
2022/09/17 06:56:52;;;;;;;8.10;0.70;;;11.30;94.90;;;;;;5055086;28;20037;-82
2022/09/17 06:59:17;;;;;;;6.72;0.57;;;11.30;94.60;;;;;;5055125;28;20036;-82
2022/09/17 07:01:43;;;;;;;5.75;0.55;;;11.30;94.30;;;;;;5055107;28;20104;-85
2022/09/17 07:04:09;;;;;;;4.78;0.50;;;11.40;94.40;;;;;;5055089;28;20393;-81
2022/09/17 07:06:34;;;;;;;4.45;0.50;;;11.50;94.40;;;;;;5038317;28;20389;-81
2022/09/17 07:09:00;;;;;;;4.78;0.95;;;11.50;94.40;;;;;;5056221;28;20064;-81
2022/09/17 07:11:28;;;;;;;7.10;1.08;;;11.60;94.30;;;;;;5054694;28;20064;-82
2022/09/17 07:13:55;;;;;;;7.03;0.67;;;11.60;94.00;;;;;;5054825;28;20081;-84
2022/09/17 07:16:20;;;;;;;6.07;0.68;;;11.50;93.90;;;;;;5038520;28;20040;-81
2022/09/17 07:18:46;;;;;;;4.43;0.50;;;11.70;94.00;;;;;;5055243;28;20029;-82
2022/09/17 07:21:11;;;;;;;7.45;1.00;;;11.80;94.00;;;;;;5054796;28;20029;-82
2022/09/17 07:23:37;;;;;;;6.88;0.55;;;11.80;93.90;;;;;;5054654;28;20060;-82
2022/09/17 07:26:12;;;;;;;7.97;0.60;;;11.80;93.90;;;;;;5054888;28;20086;-82
2022/09/17 07:28:38;;;;;;;6.40;0.85;;;11.90;93.60;;;;;;5055037;28;20017;-82
2022/09/17 07:31:05;;;;;;;4.55;0.63;;;12.00;93.40;;;;;;5056003;28;20025;-83
2022/09/17 07:33:32;;;;;;;3.13;0.60;;;12.00;93.50;;;;;;5054718;28;20028;-83
2022/09/17 07:36:04;;;;;;;9.68;1.20;;;12.00;93.80;;;;;;5038468;28;20489;-82
2022/09/17 07:38:30;;;;;;;8.55;0.77;;;12.20;93.40;;;;;;5055845;28;20025;-82
2022/09/17 07:41:07;;;;;;;9.45;1.15;;;12.10;93.00;;;;;;5037605;28;20362;-81
2022/09/17 07:43:34;;;;;;;10.05;0.68;;;12.30;92.90;;;;;;5060889;28;20044;-83
2022/09/17 07:46:02;;;;;;;9.10;0.70;;;12.30;92.80;;;;;;5074308;28;20035;-84
2022/09/17 07:48:29;;;;;;;3.25;0.30;;;12.30;92.50;;;;;;5074315;28;20051;-83
2022/09/17 07:50:55;;;;;;;7.90;0.82;;;12.40;92.40;;;;;;5075664;28;20028;-83
2022/09/17 07:53:21;;;;;;;7.72;0.65;;;12.40;92.00;;;;;;5074482;28;20032;-81
2022/09/17 07:55:54;;;;;;;7.18;0.63;;;12.50;91.60;;;;;;5054430;28;20055;-84
2022/09/17 07:58:21;;;;;;;4.25;0.60;;;12.60;91.60;;;;;;5048694;28;20025;-84
2022/09/17 08:00:47;;;;;;;5.72;0.68;;;12.60;91.30;;;;;;5063047;28;20060;-82
2022/09/17 08:03:13;;;;;;;5.55;0.50;;;12.70;91.00;;;;;;5067049;28;20026;-84
2022/09/17 08:05:39;;;;;;;6.40;0.57;;;12.80;90.70;;;;;;5053814;28;20021;-84
2022/09/17 08:08:04;;;;;;;5.70;0.82;;;12.80;90.40;;;;;;5020732;28;20025;-84
2022/09/17 08:10:30;;;;;;;8.70;0.82;;;12.80;90.30;;;;;;5059044;28;20024;-82
2022/09/17 08:12:57;;;;;;;6.80;0.50;;;12.90;90.10;;;;;;5040579;28;20463;-82
2022/09/17 08:15:24;;;;;;;7.47;0.73;;;13.00;90.10;;;;;;5057214;28;20021;-84
2022/09/17 08:17:49;;;;;;;5.32;0.80;;;13.10;90.20;;;;;;5074000;28;20388;-82
2022/09/17 08:20:16;;;;;;;5.40;0.65;;;13.10;89.60;;;;;;5073150;28;20116;-84
2022/09/17 08:22:42;;;;;;;8.40;0.63;;;13.10;89.60;;;;;;5062672;28;20100;-84
2022/09/17 08:25:08;;;;;;;7.53;0.80;;;13.20;89.30;;;;;;5020553;28;20116;-86
2022/09/17 08:27:35;;;;;;;3.85;0.40;;;13.30;88.30;;;;;;5054737;28;20024;-84
2022/09/17 08:30:00;;;;;;;7.15;0.40;;;13.30;88.60;;;;;;5036992;28;20021;-83
2022/09/17 08:32:28;;;;;;;5.15;0.60;;;13.40;88.10;;;;;;5054680;28;20028;-84
2022/09/17 08:34:54;;;;;;;7.32;0.73;;;13.50;87.70;;;;;;5054488;28;20082;-85
2022/09/17 08:37:20;;;;;;;7.10;0.60;;;13.50;87.20;;;;;;5054587;28;20103;-83
2022/09/17 08:39:46;;;;;;;6.72;1.63;;;13.50;87.20;;;;;;5036465;28;20025;-83
2022/09/17 08:42:30;;;;;;;4.05;0.50;;;13.80;86.60;;;;;;5036706;28;20029;-84
2022/09/17 08:44:56;;;;;;;4.38;0.80;;;14.00;85.00;;;;;;5064480;28;20074;-83
2022/09/17 08:47:25;;;;;;;3.15;0.32;;;14.10;84.40;;;;;;5061942;28;20040;-83
2022/09/17 08:50:05;;;;;;;6.78;0.43;;;14.30;83.90;;;;;;5060059;28;20111;-83
2022/09/17 08:52:50;;;;;;;7.22;0.80;;;14.40;83.10;;;;;;5081232;28;20111;-83
2022/09/17 08:55:38;;;;;;;5.97;0.52;;;14.50;82.10;;;;;;5058243;28;20033;-85
2022/09/17 08:58:35;;;;;;;5.00;0.80;;;14.50;81.80;;;;;;5057897;28;20083;-86
2022/09/17 09:01:24;;;;;;;5.07;0.40;;;14.60;81.60;;;;;;5063616;28;20091;-84
2022/09/17 09:04:25;;;;;;;4.80;0.60;;;14.60;79.80;;;;;;5060342;28;20047;-83
2022/09/17 09:06:58;;;;;;;4.30;0.45;;;14.60;80.50;;;;;;5053285;28;20032;-83
2022/09/17 09:09:27;;;;;;;5.55;0.77;;;14.70;80.30;;;;;;5055148;28;20021;-84
2022/09/17 09:12:06;;;;;;;5.85;0.90;;;14.60;79.00;;;;;;5064550;28;20100;-83
2022/09/17 09:14:38;;;;;;;6.65;0.43;;;14.60;79.30;;;;;;5053500;28;20029;-83
2022/09/17 09:17:08;;;;;;;2.47;0.25;;;14.60;79.90;;;;;;5059839;28;20385;-83
2022/09/17 09:19:43;;;;;;;3.40;0.32;;;14.60;76.90;;;;;;5058709;28;20120;-82
2022/09/17 09:22:45;;;;;;;5.68;0.50;;;14.50;75.90;;;;;;5066028;28;20120;-84
2022/09/17 09:25:28;;;;;;;4.13;0.30;;;14.50;76.80;;;;;;5059630;28;20119;-86
2022/09/17 09:28:21;;;;;;;2.28;0.32;;;14.50;77.30;;;;;;5025461;28;20021;-83
2022/09/17 09:31:04;;;;;;;3.00;0.82;;;14.50;76.40;;;;;;5058333;28;20064;-86
2022/09/17 09:33:36;;;;;;;4.15;0.30;;;14.50;75.60;;;;;;5052592;28;20029;-85
2022/09/17 09:36:07;;;;;;;3.78;0.55;;;14.50;75.10;;;;;;5055988;28;20017;-83
2022/09/17 09:38:37;;;;;;;3.10;0.30;;;14.50;75.30;;;;;;5063338;28;20028;-82
2022/09/17 09:41:39;;;;;;;5.60;0.55;;;14.50;75.50;;;;;;5056239;28;20123;-83
2022/09/17 09:44:09;;;;;;;7.18;0.43;;;14.60;75.40;;;;;;5054275;28;20049;-83
2022/09/17 09:47:00;;;;;;;4.88;0.50;;;14.60;75.90;;;;;;5054397;28;20031;-82
2022/09/17 09:49:45;;;;;;;5.82;0.40;;;14.60;75.80;;;;;;5056227;28;20025;-84
2022/09/17 09:52:57;;;;;;;2.90;0.30;;;14.70;76.00;;;;;;5057515;28;20393;-83
2022/09/17 09:56:05;;;;;;;4.53;0.40;;;14.80;75.70;;;;;;5084028;28;20115;-83
2022/09/17 09:58:38;;;;;;;3.78;0.50;;;15.10;75.00;;;;;;5056728;28;20033;-83
2022/09/17 10:01:14;;;;;;;5.13;0.50;;;15.30;74.20;;;;;;5051625;28;20513;-85
2022/09/17 10:03:44;;;;;;;4.88;0.50;;;15.60;73.60;;;;;;5060687;28;20412;-83
2022/09/17 10:06:11;;;;;;;4.40;0.30;;;15.80;73.30;;;;;;5052992;28;20075;-83
2022/09/17 10:08:40;;;;;;;3.85;0.30;;;15.90;72.80;;;;;;5058297;28;20039;-83
2022/09/17 10:11:12;;;;;;;4.45;0.30;;;16.00;72.80;;;;;;5051755;28;20017;-84
2022/09/17 10:13:39;;;;;;;4.68;0.40;;;16.00;73.10;;;;;;5052540;28;20029;-82
2022/09/17 10:16:35;;;;;;;4.28;0.47;;;15.90;74.30;;;;;;5050816;28;20024;-81
2022/09/17 10:19:06;;;;;;;3.45;0.32;;;15.80;75.50;;;;;;5067836;28;20604;-82
2022/09/17 10:21:34;;;;;;;3.92;0.50;;;15.80;76.50;;;;;;5071862;28;20029;-81
2022/09/17 10:24:02;;;;;;;1.95;0.30;;;15.80;77.10;;;;;;5055974;28;20029;-81
2022/09/17 10:26:34;;;;;;;3.45;0.50;;;16.20;79.00;;;;;;5055998;28;20513;-82
2022/09/17 10:29:03;;;;;;;1.88;0.20;;;16.60;78.90;;;;;;5075004;28;20016;-82
2022/09/17 10:31:54;;;;;;;2.92;0.40;;;16.80;78.60;;;;;;5075016;28;20044;-82
2022/09/17 10:34:29;;;;;;;4.63;0.40;;;16.90;78.40;;;;;;5072364;28;20119;-81
2022/09/17 10:36:56;;;;;;;2.13;0.32;;;17.00;77.90;;;;;;5075318;28;20063;-84
2022/09/17 10:39:36;;;;;;;4.13;0.50;;;16.90;74.50;;;;;;5075937;28;20021;-83
2022/09/17 10:42:15;;;;;;;3.67;0.40;;;16.70;73.30;;;;;;5075647;28;20024;-84
2022/09/17 10:44:51;;;;;;;4.90;0.60;;;16.40;72.70;;;;;;5075416;28;20115;-83
2022/09/17 10:47:30;;;;;;;1.98;0.30;;;16.20;72.20;;;;;;5075831;28;20020;-84
2022/09/17 10:50:02;;;;;;;2.53;0.30;;;16.10;73.60;;;;;;5076525;28;20016;-86
2022/09/17 10:52:38;;;;;;;2.08;0.30;;;16.70;75.40;;;;;;5076549;28;20393;-83
2022/09/17 10:55:41;;;;;;;2.05;0.20;;;17.60;75.30;;;;;;5075130;28;20036;-85
2022/09/17 10:58:07;;;;;;;1.70;0.30;;;18.50;73.30;;;;;;5076906;28;20024;-85
2022/09/17 11:01:06;;;;;;;3.47;0.50;;;19.30;71.40;;;;;;5076109;28;20550;-81
2022/09/17 11:04:18;;;;;;;4.20;0.50;;;19.90;68.60;;;;;;5073661;28;20028;-83
2022/09/17 11:07:05;;;;;;;3.13;0.40;;;20.70;66.10;;;;;;5053695;28;20049;-81
2022/09/17 11:09:45;;;;;;;1.73;0.30;;;21.30;63.30;;;;;;5056313;28;20029;-84
2022/09/17 11:12:26;;;;;;;3.38;0.52;;;21.50;62.20;;;;;;5056171;28;20029;-81
2022/09/17 11:15:15;;;;;;;5.78;0.70;;;21.20;60.80;;;;;;5056262;28;20017;-82
2022/09/17 11:18:04;;;;;;;6.55;0.60;;;20.70;60.40;;;;;;5054955;28;20036;-81
2022/09/17 11:20:48;;;;;;;2.60;0.40;;;20.10;62.20;;;;;;5056018;28;20495;-80
2022/09/17 11:23:39;;;;;;;3.53;0.50;;;20.30;63.20;;;;;;5054541;28;20033;-82
2022/09/17 11:26:37;;;;;;;2.47;0.63;;;20.80;62.60;;;;;;5062680;28;20035;-83
2022/09/17 11:29:02;;;;;;;2.53;0.40;;;21.50;61.80;;;;;;5061547;28;20104;-81
2022/09/17 11:32:22;;;;;;;1.95;0.50;;;21.90;60.60;;;;;;5054881;28;20125;-81
2022/09/17 11:35:00;;;;;;;2.88;0.60;;;22.60;59.10;;;;;;5054288;28;20080;-85
2022/09/17 11:37:53;;;;;;;5.60;0.52;;;22.70;56.20;;;;;;5039903;28;20028;-83
2022/09/17 11:40:24;;;;;;;3.33;0.52;;;22.30;54.80;;;;;;5074080;28;20126;-79
2022/09/17 11:42:55;;;;;;;5.80;0.73;;;22.00;55.70;;;;;;5064585;28;20111;-81
2022/09/17 11:45:33;;;;;;;4.20;0.70;;;22.10;54.60;;;;;;5055645;28;20033;-82
2022/09/17 11:48:18;;;;;;;3.20;0.52;;;21.80;53.60;;;;;;5061133;28;20048;-81
2022/09/17 11:50:57;;;;;;;4.97;0.77;;;21.60;54.10;;;;;;5062976;28;20020;-81
2022/09/17 11:53:29;;;;;;;5.20;0.52;;;21.50;54.40;;;;;;5063367;22;20098;-80
2022/09/17 11:56:08;;;;;;;7.38;0.65;;;21.60;55.00;;;;;;5051371;28;20021;-81
2022/09/17 11:58:37;;;;;;;6.43;0.60;;;21.40;54.40;;;;;;5054835;28;20025;-80
2022/09/17 12:01:10;;;;;;;7.97;0.90;;;21.30;53.80;;;;;;5055094;28;20033;-80
2022/09/17 12:03:43;;;;;;;7.47;1.33;;;20.90;53.50;;;;;;5055226;28;20026;-80
2022/09/17 12:06:13;;;;;;;;;;;20.40;54.00;;;;;;5054612;28;20124;-80
2022/09/17 12:09:00;;;;;;;9.07;1.35;;;19.90;55.30;;;;;;5053923;28;19959;-80
2022/09/17 12:11:49;;;;;;;5.50;0.52;;;19.40;57.10;;;;;;5054971;28;20056;-81
2022/09/17 12:14:24;;;;;;;8.18;0.82;;;18.60;61.10;;;;;;5054678;28;20021;-80
2022/09/17 12:16:56;;;;;;;9.45;1.40;;;18.10;63.10;;;;;;5070501;28;20023;-82
2022/09/17 12:19:36;;;;;;;10.63;1.35;;;18.20;65.30;;;;;;5053798;28;20100;-81
2022/09/17 12:22:10;;;;;;;5.97;0.75;;;18.90;66.30;;;;;;5052268;28;20017;-81
2022/09/17 12:24:37;;;;;;;2.63;0.50;;;19.20;64.10;;;;;;5041801;28;20041;-80
2022/09/17 12:27:08;;;;;;;3.22;0.40;;;19.20;63.50;;;;;;5040986;28;20156;-80
2022/09/17 12:30:03;;;;;;;3.25;0.40;;;19.50;63.70;;;;;;5049869;28;20021;-80
2022/09/17 12:32:57;;;;;;;3.83;0.50;;;19.70;62.30;;;;;;5051670;28;20159;-80
2022/09/17 12:35:41;;;;;;;4.18;0.65;;;20.00;61.60;;;;;;5053070;28;20457;-80
2022/09/17 12:38:25;;;;;;;5.20;0.75;;;20.60;61.40;;;;;;5053361;28;20102;-80
2022/09/17 12:41:21;;;;;;;3.17;0.55;;;21.10;60.50;;;;;;5053200;28;20049;-81
2022/09/17 12:44:12;;;;;;;5.50;0.70;;;21.80;58.00;;;;;;5053143;28;20025;-80
2022/09/17 12:47:20;;;;;;;4.43;0.50;;;21.80;56.10;;;;;;5053025;28;20461;-80
2022/09/17 12:50:10;;;;;;;6.43;0.47;;;21.30;55.50;;;;;;5052230;28;20151;-82
2022/09/17 12:53:11;;;;;;;6.00;0.40;;;20.40;56.00;;;;;;5054101;28;20051;-82
2022/09/17 12:55:42;;;;;;;2.10;0.40;;;19.70;56.70;;;;;;5052698;28;20120;-82
2022/09/17 12:58:31;;;;;;;4.68;0.80;;;19.10;58.40;;;;;;5054029;28;20075;-82
2022/09/17 13:01:05;;;;;;;2.92;0.60;;;18.70;59.60;;;;;;5052469;28;20108;-82
2022/09/17 13:03:38;;;;;;;3.40;0.40;;;18.90;60.00;;;;;;5053040;28;20052;-82
2022/09/17 13:06:07;;;;;;;4.47;0.50;;;19.40;59.70;;;;;;5052343;28;20032;-82
2022/09/17 13:08:52;;;;;;;3.38;0.55;;;20.00;58.70;;;;;;5052386;28;20017;-80
2022/09/17 13:11:26;;;;;;;;;;;20.50;58.10;;;;;;5051857;28;20070;-80
2022/09/17 13:14:18;;;;;;;6.32;0.60;;;21.10;57.20;;;;;;5051627;28;19901;-81
2022/09/17 13:17:05;;;;;;;2.58;0.40;;;21.70;56.00;;;;;;5052640;28;20020;-81